Bookmark and Share
Track history (hours):
 

Bf Esperanza

Last reported at 2014-Apr-24 19:30 UTC. Time now 2014-Apr-24 19:37 UTC.
Position N 43°21' E 005°20'.

Length 135 m; draft 6.1 m.

Type: Cargo ship. MMSI: 304907000.

NotesDate/timePositionNaut miles runAvg speedWind from/ knotsBaromVisibWave heightAir tempDewpointWater temp
2014-Apr-24 19:30N 43°21' E 005°20'0 0.0
2014-Apr-24 18:24N 43°21' E 005°20'0 0.0
2014-Apr-24 17:29N 43°21' E 005°20'0 0.0
2014-Apr-24 16:32N 43°21' E 005°20'0 0.0
2014-Apr-24 15:25N 43°21' E 005°20'0 0.0
2014-Apr-24 14:28N 43°21' E 005°20'0 0.0
2014-Apr-24 13:28N 43°21' E 005°20'5 6.0
2014-Apr-24 12:33N 43°18' E 005°14'1312.7
2014-Apr-24 11:33N 43°07' E 005°04'1312.6
2014-Apr-24 10:33N 42°58' E 004°53'1312.7
2014-Apr-24 09:32N 42°49' E 004°40'1211.8
2014-Apr-24 08:33N 42°41' E 004°29'1313.1
2014-Apr-24 07:33N 42°31' E 004°16'1312.7
2014-Apr-24 06:33N 42°22' E 004°04'1515.3
2014-Apr-24 05:33N 42°11' E 003°50'1615.9
2014-Apr-24 04:33N 41°60' E 003°36'1515.5
2014-Apr-24 03:33N 41°50' E 003°20'1717.3
2014-Apr-24 02:33N 41°40' E 003°00'1916.8
2014-Apr-24 01:26N 41°30' E 002°39'1516.5
2014-Apr-24 00:33N 41°22' E 002°23'9 8.9
2014-Apr-23 23:29N 41°21' E 002°10'0 0.1
2014-Apr-23 22:18N 41°21' E 002°10'0 0.0
2014-Apr-23 21:09N 41°21' E 002°10'0 0.0
2014-Apr-23 20:33N 41°21' E 002°10'0 0.0
2014-Apr-23 19:14N 41°21' E 002°10'0 0.0
2014-Apr-23 18:20N 41°21' E 002°10'0 0.0
2014-Apr-23 17:31N 41°21' E 002°10'0 0.0
2014-Apr-23 16:32N 41°21' E 002°10'10 8.3
2014-Apr-23 15:17N 41°20' E 002°24'1115.3
2014-Apr-23 14:33N 41°25' E 002°37'1414.3
2014-Apr-23 13:33N 41°34' E 002°52'1715.6
2014-Apr-23 12:29N 41°44' E 003°10'1415.0
2014-Apr-23 11:33N 41°53' E 003°25'1514.9
2014-Apr-23 10:33N 42°07' E 003°26'1515.1
2014-Apr-23 09:31N 42°23' E 003°23'1414.5
2014-Apr-23 08:33N 42°32' E 003°08'2 1.4
2014-Apr-23 07:25N 42°31' E 003°06'0 0.0
2014-Apr-23 06:15N 42°31' E 003°06'0 0.0
2014-Apr-23 05:07N 42°31' E 003°06'0 0.0
2014-Apr-23 04:33N 42°31' E 003°06'0 0.0
2014-Apr-23 03:09N 42°31' E 003°06'0 0.0
2014-Apr-23 02:19N 42°31' E 003°06'0 0.0
2014-Apr-22 23:23N 42°31' E 003°06'0 0.0
2014-Apr-22 22:33N 42°31' E 003°06'0 0.0
2014-Apr-22 21:13N 42°31' E 003°06'0 0.0
2014-Apr-22 20:28N 42°31' E 003°06'0 0.0
2014-Apr-22 19:31N 42°31' E 003°06'0 0.0
2014-Apr-22 17:33N 42°31' E 003°06'0 0.0
2014-Apr-22 16:30N 42°31' E 003°06'0 0.0
2014-Apr-22 15:29N 42°31' E 003°06'0 0.0
2014-Apr-22 13:32N 42°31' E 003°06'0 0.0
2014-Apr-22 12:16N 42°31' E 003°06'0 0.0
2014-Apr-22 10:21N 42°31' E 003°06'0 0.0
2014-Apr-22 09:27N 42°31' E 003°06'0 0.0
2014-Apr-22 08:30N 42°31' E 003°06'0 0.0
2014-Apr-22 07:23N 42°31' E 003°06'4610.7
2014-Apr-22 03:04N 41°46' E 003°19'2516.3
2014-Apr-22 01:31N 41°26' E 002°59'1515.5
2014-Apr-22 00:33N 41°13' E 002°47'1616.2
2014-Apr-21 23:34N 41°00' E 002°35'1716.9
2014-Apr-21 22:33N 40°47' E 002°21'1716.8
2014-Apr-21 21:33N 40°33' E 002°08'1716.9
2014-Apr-21 20:33N 40°20' E 001°55'1717.3
2014-Apr-21 19:33N 40°06' E 001°41'1716.6
2014-Apr-21 18:33N 39°52' E 001°29'12718.0
2014-Apr-21 11:32N 38°07' W 000°02'3517.3
2014-Apr-21 09:31N 37°38' W 000°27'24415.3
2014-Apr-20 17:32N 36°00' W 005°05'1919.1
2014-Apr-20 16:34N 35°57' W 005°28'1716.9
2014-Apr-20 15:32N 35°53' W 005°49'9 0.2
2014-Apr-18 11:32N 35°52' W 006°00'1414.2
2014-Apr-18 10:31N 35°57' W 005°43'11 0.7
2014-Apr-17 17:33N 35°55' W 005°30'9 8.6
2014-Apr-17 16:33N 36°01' W 005°22'24716.4
2014-Apr-17 01:29N 37°33' W 000°36'4016.9
2014-Apr-16 23:08N 38°06' W 000°08'11915.7
2014-Apr-16 15:33N 39°43' E 001°20'1717.0
2014-Apr-16 14:33N 39°57' E 001°33'1615.6
2014-Apr-16 13:33N 40°09' E 001°45'1616.3
2014-Apr-16 12:33N 40°23' E 001°58'1616.4
2014-Apr-16 11:33N 40°36' E 002°11'1716.6
2014-Apr-16 10:33N 40°49' E 002°24'1917.5
2014-Apr-16 09:28N 41°04' E 002°39'1716.4
2014-Apr-16 08:25N 41°18' E 002°52'1617.9
2014-Apr-16 07:33N 41°31' E 003°04'10217.0
2014-Apr-16 01:33N 42°47' E 004°37'1817.3
2014-Apr-16 00:31N 42°59' E 004°54'1516.0
2014-Apr-15 23:33N 43°12' E 005°07'1110.2
2014-Apr-15 22:28N 43°20' E 005°17'3 0.6
2014-Apr-15 18:13N 43°21' E 005°20'0 0.0
2014-Apr-15 11:32N 43°21' E 005°20'0 0.0
2014-Apr-15 08:34N 43°21' E 005°20'0 0.0
2014-Apr-15 03:31N 43°21' E 005°20'  

Dump ship's entire track history

sailing weather and tide predictions

Bf Esperanza — V2BR8 — position and weather